sensor_id;sensor_type;location;lat;lon;timestamp;pressure;altitude;pressure_sealevel;temperature;humidity
6567;BME280;3317;43.994;22.878;2022-08-01T00:02:18;100629.19;;;24.85;38.20
6567;BME280;3317;43.994;22.878;2022-08-01T00:04:46;100601.78;;;24.72;38.24
6567;BME280;3317;43.994;22.878;2022-08-01T00:07:12;100627.50;;;24.84;38.13
6567;BME280;3317;43.994;22.878;2022-08-01T00:09:39;100622.75;;;24.80;37.96
6567;BME280;3317;43.994;22.878;2022-08-01T00:12:08;100617.94;;;24.75;37.77
6567;BME280;3317;43.994;22.878;2022-08-01T00:14:35;100626.34;;;24.80;37.65
6567;BME280;3317;43.994;22.878;2022-08-01T00:17:02;100634.41;;;24.82;37.63
6567;BME280;3317;43.994;22.878;2022-08-01T00:19:29;100597.09;;;24.55;37.57
6567;BME280;3317;43.994;22.878;2022-08-01T00:21:56;100632.47;;;24.82;37.82
6567;BME280;3317;43.994;22.878;2022-08-01T00:24:23;100627.78;;;24.83;38.08
6567;BME280;3317;43.994;22.878;2022-08-01T00:26:50;100614.44;;;24.80;37.81
6567;BME280;3317;43.994;22.878;2022-08-01T00:29:18;100626.91;;;24.82;38.03
6567;BME280;3317;43.994;22.878;2022-08-01T00:31:46;100621.97;;;24.84;38.08
6567;BME280;3317;43.994;22.878;2022-08-01T00:34:14;100617.78;;;24.82;37.99
6567;BME280;3317;43.994;22.878;2022-08-01T00:36:41;100629.69;;;24.82;38.18
6567;BME280;3317;43.994;22.878;2022-08-01T00:39:12;100613.56;;;24.79;37.67
6567;BME280;3317;43.994;22.878;2022-08-01T00:41:38;100619.97;;;24.80;37.81
6567;BME280;3317;43.994;22.878;2022-08-01T00:44:06;100629.63;;;24.77;38.10
6567;BME280;3317;43.994;22.878;2022-08-01T00:46:34;100615.91;;;24.70;37.98
6567;BME280;3317;43.994;22.878;2022-08-01T00:49:02;100623.38;;;24.70;38.02
6567;BME280;3317;43.994;22.878;2022-08-01T00:51:29;100624.72;;;24.67;37.90
6567;BME280;3317;43.994;22.878;2022-08-01T00:53:59;100619.66;;;24.64;37.88
6567;BME280;3317;43.994;22.878;2022-08-01T00:56:27;100613.31;;;24.64;38.14
6567;BME280;3317;43.994;22.878;2022-08-01T00:58:55;100609.94;;;24.61;38.16
6567;BME280;3317;43.994;22.878;2022-08-01T01:01:22;100596.25;;;24.55;38.20
6567;BME280;3317;43.994;22.878;2022-08-01T01:03:51;100615.72;;;24.60;38.49
6567;BME280;3317;43.994;22.878;2022-08-01T01:06:36;100609.03;;;24.56;38.43
6567;BME280;3317;43.994;22.878;2022-08-01T01:09:23;100604.81;;;24.53;38.86
6567;BME280;3317;43.994;22.878;2022-08-01T01:12:02;100614.72;;;24.49;38.79
6567;BME280;3317;43.994;22.878;2022-08-01T01:14:36;100617.97;;;24.46;39.61
6567;BME280;3317;43.994;22.878;2022-08-01T01:17:11;100625.97;;;24.42;39.35
6567;BME280;3317;43.994;22.878;2022-08-01T01:19:45;100619.56;;;24.42;39.57
6567;BME280;3317;43.994;22.878;2022-08-01T01:22:27;100620.22;;;24.32;39.79
6567;BME280;3317;43.994;22.878;2022-08-01T01:25:26;100628.78;;;24.30;40.08
6567;BME280;3317;43.994;22.878;2022-08-01T01:28:05;100634.81;;;24.27;39.99
6567;BME280;3317;43.994;22.878;2022-08-01T01:30:41;100626.75;;;24.26;40.09
6567;BME280;3317;43.994;22.878;2022-08-01T01:33:11;100617.03;;;24.23;39.85
6567;BME280;3317;43.994;22.878;2022-08-01T01:35:43;100620.91;;;24.22;40.39
6567;BME280;3317;43.994;22.878;2022-08-01T01:38:17;100546.44;;;23.80;40.53
6567;BME280;3317;43.994;22.878;2022-08-01T01:40:46;100609.34;;;24.13;40.34
6567;BME280;3317;43.994;22.878;2022-08-01T01:43:15;100618.88;;;24.17;39.88
6567;BME280;3317;43.994;22.878;2022-08-01T01:45:45;100611.66;;;24.16;39.89
6567;BME280;3317;43.994;22.878;2022-08-01T01:48:15;100609.13;;;24.15;40.01
6567;BME280;3317;43.994;22.878;2022-08-01T01:50:45;100609.34;;;24.13;39.57
6567;BME280;3317;43.994;22.878;2022-08-01T01:53:14;100598.56;;;24.12;39.61
6567;BME280;3317;43.994;22.878;2022-08-01T01:55:45;100606.28;;;24.10;40.00
6567;BME280;3317;43.994;22.878;2022-08-01T01:58:13;100609.28;;;24.08;39.91
6567;BME280;3317;43.994;22.878;2022-08-01T02:00:42;100584.00;;;24.04;39.66
6567;BME280;3317;43.994;22.878;2022-08-01T02:03:13;100602.06;;;24.07;39.53
6567;BME280;3317;43.994;22.878;2022-08-01T02:05:41;100591.69;;;24.02;39.55
6567;BME280;3317;43.994;22.878;2022-08-01T02:08:10;100586.09;;;23.97;39.52
6567;BME280;3317;43.994;22.878;2022-08-01T02:10:39;100600.00;;;24.02;39.49
6567;BME280;3317;43.994;22.878;2022-08-01T02:13:07;100517.53;;;23.58;39.17
6567;BME280;3317;43.994;22.878;2022-08-01T02:15:37;100587.88;;;24.03;39.28
6567;BME280;3317;43.994;22.878;2022-08-01T02:18:06;100586.41;;;24.01;39.60
6567;BME280;3317;43.994;22.878;2022-08-01T02:20:37;100586.66;;;23.99;39.35
6567;BME280;3317;43.994;22.878;2022-08-01T02:23:08;100584.41;;;23.96;39.52
6567;BME280;3317;43.994;22.878;2022-08-01T02:25:40;100581.13;;;23.99;39.60
6567;BME280;3317;43.994;22.878;2022-08-01T02:28:11;100587.25;;;24.01;39.07
6567;BME280;3317;43.994;22.878;2022-08-01T02:30:44;100592.19;;;23.99;39.43
6567;BME280;3317;43.994;22.878;2022-08-01T02:33:18;100535.16;;;23.69;39.23
6567;BME280;3317;43.994;22.878;2022-08-01T02:35:52;100588.00;;;23.97;39.38
6567;BME280;3317;43.994;22.878;2022-08-01T02:38:21;100584.03;;;23.93;39.39
6567;BME280;3317;43.994;22.878;2022-08-01T02:40:50;100572.13;;;23.92;39.64
6567;BME280;3317;43.994;22.878;2022-08-01T02:43:21;100580.69;;;23.90;39.43
6567;BME280;3317;43.994;22.878;2022-08-01T02:45:53;100572.63;;;23.89;39.26
6567;BME280;3317;43.994;22.878;2022-08-01T02:48:21;100550.28;;;23.79;39.44
6567;BME280;3317;43.994;22.878;2022-08-01T02:50:54;100564.72;;;23.81;39.18
6567;BME280;3317;43.994;22.878;2022-08-01T02:53:23;100564.72;;;23.81;39.26
6567;BME280;3317;43.994;22.878;2022-08-01T02:55:53;100529.94;;;23.56;39.04
6567;BME280;3317;43.994;22.878;2022-08-01T02:58:21;100567.38;;;23.75;39.58
6567;BME280;3317;43.994;22.878;2022-08-01T03:00:50;100568.72;;;23.73;39.68
6567;BME280;3317;43.994;22.878;2022-08-01T03:03:18;100563.69;;;23.70;39.34
6567;BME280;3317;43.994;22.878;2022-08-01T03:05:46;100565.84;;;23.68;39.29
6567;BME280;3317;43.994;22.878;2022-08-01T03:08:16;100559.63;;;23.60;39.50
6567;BME280;3317;43.994;22.878;2022-08-01T03:10:45;100553.75;;;23.57;39.71
6567;BME280;3317;43.994;22.878;2022-08-01T03:13:14;100566.66;;;23.51;39.92
6567;BME280;3317;43.994;22.878;2022-08-01T03:15:43;100556.41;;;23.52;39.87
6567;BME280;3317;43.994;22.878;2022-08-01T03:18:12;100563.75;;;23.46;39.38
6567;BME280;3317;43.994;22.878;2022-08-01T03:20:41;100552.84;;;23.39;39.86
6567;BME280;3317;43.994;22.878;2022-08-01T03:23:12;100562.44;;;23.37;39.67
6567;BME280;3317;43.994;22.878;2022-08-01T03:25:43;100567.28;;;23.29;40.05
6567;BME280;3317;43.994;22.878;2022-08-01T03:28:13;100570.28;;;23.28;39.80
6567;BME280;3317;43.994;22.878;2022-08-01T03:30:40;100565.72;;;23.21;40.18
6567;BME280;3317;43.994;22.878;2022-08-01T03:33:09;100568.47;;;23.21;39.94
6567;BME280;3317;43.994;22.878;2022-08-01T03:35:39;100583.88;;;23.29;40.49
6567;BME280;3317;43.994;22.878;2022-08-01T03:38:10;100592.75;;;23.31;40.38
6567;BME280;3317;43.994;22.878;2022-08-01T03:40:45;100587.59;;;23.35;40.48
6567;BME280;3317;43.994;22.878;2022-08-01T03:43:20;100586.28;;;23.38;40.26
6567;BME280;3317;43.994;22.878;2022-08-01T03:45:51;100579.97;;;23.42;40.61
6567;BME280;3317;43.994;22.878;2022-08-01T03:48:22;100571.47;;;23.44;40.50
6567;BME280;3317;43.994;22.878;2022-08-01T03:50:57;100586.22;;;23.49;40.52
6567;BME280;3317;43.994;22.878;2022-08-01T03:53:29;100585.75;;;23.53;40.49
6567;BME280;3317;43.994;22.878;2022-08-01T03:56:01;100576.75;;;23.45;40.52
6567;BME280;3317;43.994;22.878;2022-08-01T03:58:29;100593.66;;;23.61;40.74
6567;BME280;3317;43.994;22.878;2022-08-01T04:00:57;100587.84;;;23.74;41.32
6567;BME280;3317;43.994;22.878;2022-08-01T04:03:26;100602.22;;;23.88;41.20
6567;BME280;3317;43.994;22.878;2022-08-01T04:05:54;100593.28;;;23.98;40.57
6567;BME280;3317;43.994;22.878;2022-08-01T04:08:21;100580.63;;;24.02;40.55
6567;BME280;3317;43.994;22.878;2022-08-01T04:10:48;100595.97;;;24.22;40.15
6567;BME280;3317;43.994;22.878;2022-08-01T04:13:18;100590.59;;;24.32;39.76
6567;BME280;3317;43.994;22.878;2022-08-01T04:15:45;100596.91;;;24.45;39.84
6567;BME280;3317;43.994;22.878;2022-08-01T04:18:12;100597.94;;;24.56;39.52
6567;BME280;3317;43.994;22.878;2022-08-01T04:20:39;100605.81;;;24.64;39.05
6567;BME280;3317;43.994;22.878;2022-08-01T04:23:07;100604.31;;;24.73;39.02
6567;BME280;3317;43.994;22.878;2022-08-01T04:25:37;100603.59;;;24.78;39.18
6567;BME280;3317;43.994;22.878;2022-08-01T04:28:07;100615.41;;;24.91;38.64
6567;BME280;3317;43.994;22.878;2022-08-01T04:30:44;100610.28;;;24.99;38.85
6567;BME280;3317;43.994;22.878;2022-08-01T04:33:14;100600.97;;;25.06;38.59
6567;BME280;3317;43.994;22.878;2022-08-01T04:35:44;100612.28;;;25.21;39.00
6567;BME280;3317;43.994;22.878;2022-08-01T04:38:14;100611.31;;;25.33;38.78
6567;BME280;3317;43.994;22.878;2022-08-01T04:40:44;100600.88;;;25.40;38.43
6567;BME280;3317;43.994;22.878;2022-08-01T04:43:12;100603.56;;;25.52;38.38
6567;BME280;3317;43.994;22.878;2022-08-01T04:45:39;100608.41;;;25.62;38.31
6567;BME280;3317;43.994;22.878;2022-08-01T04:48:10;100599.88;;;25.68;38.21
6567;BME280;3317;43.994;22.878;2022-08-01T04:50:41;100608.63;;;25.82;38.24
6567;BME280;3317;43.994;22.878;2022-08-01T04:53:13;100615.72;;;25.95;38.16
6567;BME280;3317;43.994;22.878;2022-08-01T04:55:41;100591.88;;;25.99;37.98
6567;BME280;3317;43.994;22.878;2022-08-01T04:58:09;100611.81;;;26.19;38.02
6567;BME280;3317;43.994;22.878;2022-08-01T05:00:37;100601.06;;;26.27;36.95
6567;BME280;3317;43.994;22.878;2022-08-01T05:03:06;100614.53;;;26.41;36.66
6567;BME280;3317;43.994;22.878;2022-08-01T05:05:35;100604.06;;;26.48;36.56
6567;BME280;3317;43.994;22.878;2022-08-01T05:08:02;100611.13;;;26.61;36.48
6567;BME280;3317;43.994;22.878;2022-08-01T05:10:29;100609.81;;;26.74;36.08
6567;BME280;3317;43.994;22.878;2022-08-01T05:12:56;100582.03;;;26.74;35.88
6567;BME280;3317;43.994;22.878;2022-08-01T05:15:23;100604.47;;;27.00;35.83
6567;BME280;3317;43.994;22.878;2022-08-01T05:17:50;100611.78;;;27.06;35.22
6567;BME280;3317;43.994;22.878;2022-08-01T05:20:17;100613.22;;;27.19;34.86
6567;BME280;3317;43.994;22.878;2022-08-01T05:22:46;100612.97;;;27.26;34.51
6567;BME280;3317;43.994;22.878;2022-08-01T05:25:13;100605.81;;;27.35;34.31
6567;BME280;3317;43.994;22.878;2022-08-01T05:27:40;100609.16;;;27.42;34.25
6567;BME280;3317;43.994;22.878;2022-08-01T05:30:08;100584.66;;;27.39;34.08
6567;BME280;3317;43.994;22.878;2022-08-01T05:32:35;100593.63;;;27.47;34.38
6567;BME280;3317;43.994;22.878;2022-08-01T05:35:03;100610.97;;;27.64;34.15
6567;BME280;3317;43.994;22.878;2022-08-01T05:37:31;100608.22;;;27.75;34.08
6567;BME280;3317;43.994;22.878;2022-08-01T05:39:59;100610.75;;;27.87;33.83
6567;BME280;3317;43.994;22.878;2022-08-01T05:42:26;100607.97;;;27.87;34.13
6567;BME280;3317;43.994;22.878;2022-08-01T05:44:53;100626.16;;;28.10;33.81
6567;BME280;3317;43.994;22.878;2022-08-01T05:47:20;100625.63;;;28.18;33.46
6567;BME280;3317;43.994;22.878;2022-08-01T05:49:47;100628.72;;;28.22;33.36
6567;BME280;3317;43.994;22.878;2022-08-01T05:52:15;100623.16;;;28.32;33.24
6567;BME280;3317;43.994;22.878;2022-08-01T05:54:42;100618.97;;;28.40;33.21
6567;BME280;3317;43.994;22.878;2022-08-01T05:57:10;100612.56;;;28.39;32.74
6567;BME280;3317;43.994;22.878;2022-08-01T05:59:37;100621.78;;;28.50;32.74
6567;BME280;3317;43.994;22.878;2022-08-01T06:02:04;100626.25;;;28.51;32.19
6567;BME280;3317;43.994;22.878;2022-08-01T06:04:31;100616.47;;;28.54;32.31
6567;BME280;3317;43.994;22.878;2022-08-01T06:06:58;100618.44;;;28.59;32.22
6567;BME280;3317;43.994;22.878;2022-08-01T06:09:25;100625.97;;;28.69;32.09
6567;BME280;3317;43.994;22.878;2022-08-01T06:11:52;100624.56;;;28.76;32.43
6567;BME280;3317;43.994;22.878;2022-08-01T06:14:21;100625.41;;;28.87;32.14
6567;BME280;3317;43.994;22.878;2022-08-01T06:16:48;100630.44;;;28.95;31.86
6567;BME280;3317;43.994;22.878;2022-08-01T06:19:15;100636.56;;;28.98;31.86
6567;BME280;3317;43.994;22.878;2022-08-01T06:21:42;100635.16;;;29.05;31.97
6567;BME280;3317;43.994;22.878;2022-08-01T06:24:09;100635.69;;;29.13;31.76
6567;BME280;3317;43.994;22.878;2022-08-01T06:26:36;100632.63;;;29.25;31.92
6567;BME280;3317;43.994;22.878;2022-08-01T06:29:03;100607.25;;;29.16;31.40
6567;BME280;3317;43.994;22.878;2022-08-01T06:31:31;100635.34;;;29.45;31.45
6567;BME280;3317;43.994;22.878;2022-08-01T06:33:58;100622.50;;;29.55;31.04
6567;BME280;3317;43.994;22.878;2022-08-01T06:36:25;100624.16;;;29.61;30.99
6567;BME280;3317;43.994;22.878;2022-08-01T06:38:52;100618.81;;;29.64;31.30
6567;BME280;3317;43.994;22.878;2022-08-01T06:41:21;100589.84;;;29.55;31.02
6567;BME280;3317;43.994;22.878;2022-08-01T06:43:48;100616.53;;;29.82;30.96
6567;BME280;3317;43.994;22.878;2022-08-01T06:46:16;100625.97;;;29.91;30.92
6567;BME280;3317;43.994;22.878;2022-08-01T06:48:44;100623.94;;;30.07;30.58
6567;BME280;3317;43.994;22.878;2022-08-01T06:51:11;100621.66;;;30.15;30.78
6567;BME280;3317;43.994;22.878;2022-08-01T06:53:40;100626.34;;;30.25;30.74
6567;BME280;3317;43.994;22.878;2022-08-01T06:56:08;100618.72;;;30.35;30.41
6567;BME280;3317;43.994;22.878;2022-08-01T06:58:35;100626.78;;;30.42;30.62
6567;BME280;3317;43.994;22.878;2022-08-01T07:01:03;100603.53;;;30.47;30.35
6567;BME280;3317;43.994;22.878;2022-08-01T07:03:31;100611.50;;;30.69;29.88
6567;BME280;3317;43.994;22.878;2022-08-01T07:05:59;100613.63;;;30.83;30.04
6567;BME280;3317;43.994;22.878;2022-08-01T07:08:26;100621.34;;;30.91;29.90
6567;BME280;3317;43.994;22.878;2022-08-01T07:10:53;100618.41;;;31.07;30.23
6567;BME280;3317;43.994;22.878;2022-08-01T07:13:21;100604.03;;;31.18;29.72
6567;BME280;3317;43.994;22.878;2022-08-01T07:15:50;100613.13;;;31.35;29.66
6567;BME280;3317;43.994;22.878;2022-08-01T07:18:18;100550.97;;;31.08;29.31
6567;BME280;3317;43.994;22.878;2022-08-01T07:20:45;100591.38;;;31.26;29.33
6567;BME280;3317;43.994;22.878;2022-08-01T07:23:14;100617.91;;;31.53;29.96
6567;BME280;3317;43.994;22.878;2022-08-01T07:25:41;100616.81;;;31.73;29.98
6567;BME280;3317;43.994;22.878;2022-08-01T07:28:08;100620.66;;;31.83;29.61
6567;BME280;3317;43.994;22.878;2022-08-01T07:30:36;100613.63;;;31.85;28.92
6567;BME280;3317;43.994;22.878;2022-08-01T07:33:03;100618.09;;;31.86;28.65
6567;BME280;3317;43.994;22.878;2022-08-01T07:35:30;100622.56;;;31.87;29.26
6567;BME280;3317;43.994;22.878;2022-08-01T07:37:56;100619.66;;;31.93;29.14
6567;BME280;3317;43.994;22.878;2022-08-01T07:40:25;100628.84;;;31.98;28.98
6567;BME280;3317;43.994;22.878;2022-08-01T07:42:52;100615.88;;;32.02;29.11
6567;BME280;3317;43.994;22.878;2022-08-01T07:45:19;100616.06;;;32.11;28.86
6567;BME280;3317;43.994;22.878;2022-08-01T07:47:46;100618.16;;;32.20;28.84
6567;BME280;3317;43.994;22.878;2022-08-01T07:50:15;100617.13;;;32.35;29.29
6567;BME280;3317;43.994;22.878;2022-08-01T07:52:43;100621.34;;;32.51;29.37
6567;BME280;3317;43.994;22.878;2022-08-01T07:55:11;100612.00;;;32.56;28.55
6567;BME280;3317;43.994;22.878;2022-08-01T07:57:39;100622.00;;;32.62;28.45
6567;BME280;3317;43.994;22.878;2022-08-01T08:00:07;100573.53;;;32.42;28.64
6567;BME280;3317;43.994;22.878;2022-08-01T08:02:35;100607.78;;;32.72;28.72
6567;BME280;3317;43.994;22.878;2022-08-01T08:05:02;100606.06;;;32.77;28.85
6567;BME280;3317;43.994;22.878;2022-08-01T08:07:30;100600.22;;;32.87;28.45
6567;BME280;3317;43.994;22.878;2022-08-01T08:09:57;100607.97;;;32.95;28.47
6567;BME280;3317;43.994;22.878;2022-08-01T08:12:24;100593.44;;;33.07;28.66
6567;BME280;3317;43.994;22.878;2022-08-01T08:14:52;100607.06;;;33.14;28.13
6567;BME280;3317;43.994;22.878;2022-08-01T08:17:19;100604.47;;;33.18;28.06
6567;BME280;3317;43.994;22.878;2022-08-01T08:19:46;100592.19;;;33.27;28.07
6567;BME280;3317;43.994;22.878;2022-08-01T08:22:13;100599.38;;;33.34;28.02
6567;BME280;3317;43.994;22.878;2022-08-01T08:24:40;100597.81;;;33.41;27.86
6567;BME280;3317;43.994;22.878;2022-08-01T08:27:07;100590.38;;;33.51;28.02
6567;BME280;3317;43.994;22.878;2022-08-01T08:29:34;100609.03;;;33.69;28.12
6567;BME280;3317;43.994;22.878;2022-08-01T08:32:03;100604.44;;;33.88;28.30
6567;BME280;3317;43.994;22.878;2022-08-01T08:34:30;100602.84;;;33.95;27.69
6567;BME280;3317;43.994;22.878;2022-08-01T08:36:57;100582.13;;;34.05;27.73
6567;BME280;3317;43.994;22.878;2022-08-01T08:39:25;100599.53;;;34.30;28.06
6567;BME280;3317;43.994;22.878;2022-08-01T08:41:52;100594.56;;;34.50;27.86
6567;BME280;3317;43.994;22.878;2022-08-01T08:44:19;100596.88;;;34.71;27.21
6567;BME280;3317;43.994;22.878;2022-08-01T08:46:47;100612.84;;;34.84;27.23
6567;BME280;3317;43.994;22.878;2022-08-01T08:49:19;100608.44;;;35.01;26.53
6567;BME280;3317;43.994;22.878;2022-08-01T08:51:48;100613.59;;;34.99;26.48
6567;BME280;3317;43.994;22.878;2022-08-01T08:54:16;100607.53;;;35.05;26.42
6567;BME280;3317;43.994;22.878;2022-08-01T08:56:45;100606.91;;;35.17;26.60
6567;BME280;3317;43.994;22.878;2022-08-01T08:59:13;100601.97;;;35.32;26.25
6567;BME280;3317;43.994;22.878;2022-08-01T09:01:41;100602.34;;;35.39;25.92
6567;BME280;3317;43.994;22.878;2022-08-01T09:04:09;100601.03;;;35.45;26.06
6567;BME280;3317;43.994;22.878;2022-08-01T09:06:38;100603.56;;;35.56;25.82
6567;BME280;3317;43.994;22.878;2022-08-01T09:09:06;100603.75;;;35.68;26.31
6567;BME280;3317;43.994;22.878;2022-08-01T09:11:34;100598.63;;;35.70;25.30
6567;BME280;3317;43.994;22.878;2022-08-01T09:14:03;100541.38;;;35.43;25.41
6567;BME280;3317;43.994;22.878;2022-08-01T09:16:30;100583.88;;;35.73;25.65
6567;BME280;3317;43.994;22.878;2022-08-01T09:19:07;100600.31;;;35.89;25.53
6567;BME280;3317;43.994;22.878;2022-08-01T09:21:36;100584.88;;;35.86;25.39
6567;BME280;3317;43.994;22.878;2022-08-01T09:24:12;100580.94;;;36.05;24.98
6567;BME280;3317;43.994;22.878;2022-08-01T09:26:40;100583.91;;;36.17;24.82
6567;BME280;3317;43.994;22.878;2022-08-01T09:29:09;100587.09;;;36.16;24.68
6567;BME280;3317;43.994;22.878;2022-08-01T09:31:44;100579.28;;;36.30;25.15
6567;BME280;3317;43.994;22.878;2022-08-01T09:34:14;100573.09;;;36.46;25.52
6567;BME280;3317;43.994;22.878;2022-08-01T09:36:47;100579.25;;;36.66;24.71
6567;BME280;3317;43.994;22.878;2022-08-01T09:39:18;100578.88;;;36.76;24.44
6567;BME280;3317;43.994;22.878;2022-08-01T09:41:45;100576.41;;;36.74;23.99
6567;BME280;3317;43.994;22.878;2022-08-01T09:44:14;100565.72;;;36.89;24.17
6567;BME280;3317;43.994;22.878;2022-08-01T09:46:50;100557.19;;;36.98;24.39
6567;BME280;3317;43.994;22.878;2022-08-01T09:49:28;100576.69;;;37.29;24.06
6567;BME280;3317;43.994;22.878;2022-08-01T09:51:57;100574.69;;;37.30;23.50
6567;BME280;3317;43.994;22.878;2022-08-01T09:54:29;100569.06;;;37.21;23.32
6567;BME280;3317;43.994;22.878;2022-08-01T09:57:08;100575.19;;;37.32;23.78
6567;BME280;3317;43.994;22.878;2022-08-01T09:59:36;100564.16;;;37.39;23.84
6567;BME280;3317;43.994;22.878;2022-08-01T10:02:06;100561.47;;;37.43;23.43
6567;BME280;3317;43.994;22.878;2022-08-01T10:04:33;100575.47;;;37.39;23.60
6567;BME280;3317;43.994;22.878;2022-08-01T10:07:06;100568.63;;;37.40;23.77
6567;BME280;3317;43.994;22.878;2022-08-01T10:09:35;100563.69;;;37.37;23.23
6567;BME280;3317;43.994;22.878;2022-08-01T10:12:04;100572.84;;;37.34;23.59
6567;BME280;3317;43.994;22.878;2022-08-01T10:14:31;100549.94;;;37.27;23.92
6567;BME280;3317;43.994;22.878;2022-08-01T10:16:59;100557.69;;;37.39;24.04
6567;BME280;3317;43.994;22.878;2022-08-01T10:19:28;100561.34;;;37.39;23.75
6567;BME280;3317;43.994;22.878;2022-08-01T10:21:57;100567.97;;;37.43;23.39
6567;BME280;3317;43.994;22.878;2022-08-01T10:24:27;100556.16;;;37.41;23.33
6567;BME280;3317;43.994;22.878;2022-08-01T10:27:01;100512.50;;;37.09;23.32
6567;BME280;3317;43.994;22.878;2022-08-01T10:29:33;100557.25;;;37.28;23.26
6567;BME280;3317;43.994;22.878;2022-08-01T10:32:04;100550.09;;;37.30;23.90
6567;BME280;3317;43.994;22.878;2022-08-01T10:34:31;100552.84;;;37.39;23.41
6567;BME280;3317;43.994;22.878;2022-08-01T10:37:01;100546.03;;;37.40;24.23
6567;BME280;3317;43.994;22.878;2022-08-01T10:39:30;100551.81;;;37.53;24.05
6567;BME280;3317;43.994;22.878;2022-08-01T10:41:57;100553.53;;;37.66;23.60
6567;BME280;3317;43.994;22.878;2022-08-01T10:44:27;100547.75;;;37.84;23.91
6567;BME280;3317;43.994;22.878;2022-08-01T10:46:59;100554.28;;;37.97;23.60
6567;BME280;3317;43.994;22.878;2022-08-01T10:49:30;100555.31;;;38.01;23.02
6567;BME280;3317;43.994;22.878;2022-08-01T10:52:01;100559.94;;;37.97;23.09
6567;BME280;3317;43.994;22.878;2022-08-01T10:54:38;100547.94;;;37.79;23.12
6567;BME280;3317;43.994;22.878;2022-08-01T10:57:06;100549.56;;;37.88;23.90
6567;BME280;3317;43.994;22.878;2022-08-01T10:59:33;100553.19;;;37.89;23.40
6567;BME280;3317;43.994;22.878;2022-08-01T11:02:05;100544.56;;;37.85;23.57
6567;BME280;3317;43.994;22.878;2022-08-01T11:04:42;100560.91;;;37.80;23.47
6567;BME280;3317;43.994;22.878;2022-08-01T11:07:15;100548.38;;;37.68;23.32
6567;BME280;3317;43.994;22.878;2022-08-01T11:09:45;100552.38;;;37.67;23.22
6567;BME280;3317;43.994;22.878;2022-08-01T11:12:14;100554.53;;;37.70;23.80
6567;BME280;3317;43.994;22.878;2022-08-01T11:17:50;100551.69;;;37.70;23.89
6567;BME280;3317;43.994;22.878;2022-08-01T11:20:18;100527.13;;;37.62;23.75
6567;BME280;3317;43.994;22.878;2022-08-01T11:23:16;100550.03;;;37.69;23.88
6567;BME280;3317;43.994;22.878;2022-08-01T11:29:12;100534.72;;;37.70;24.32
6567;BME280;3317;43.994;22.878;2022-08-01T11:31:40;100539.69;;;37.73;24.24
6567;BME280;3317;43.994;22.878;2022-08-01T11:34:07;100542.03;;;37.71;23.48
6567;BME280;3317;43.994;22.878;2022-08-01T11:36:34;100524.38;;;37.53;23.46
6567;BME280;3317;43.994;22.878;2022-08-01T11:39:27;100544.78;;;37.59;23.83
6567;BME280;3317;43.994;22.878;2022-08-01T11:41:54;100535.50;;;37.50;23.39
6567;BME280;3317;43.994;22.878;2022-08-01T11:44:24;100540.53;;;37.44;24.21
6567;BME280;3317;43.994;22.878;2022-08-01T11:46:58;100545.91;;;37.37;23.35
6567;BME280;3317;43.994;22.878;2022-08-01T11:49:42;100526.91;;;37.16;23.96
6567;BME280;3317;43.994;22.878;2022-08-01T11:52:12;100523.47;;;37.10;24.66
6567;BME280;3317;43.994;22.878;2022-08-01T11:54:42;100524.78;;;37.13;24.28
6567;BME280;3317;43.994;22.878;2022-08-01T11:57:10;100528.25;;;37.18;24.23
6567;BME280;3317;43.994;22.878;2022-08-01T11:59:41;100529.59;;;37.12;23.96
6567;BME280;3317;43.994;22.878;2022-08-01T12:02:18;100537.41;;;37.06;24.30
6567;BME280;3317;43.994;22.878;2022-08-01T12:04:51;100520.31;;;37.12;24.40
6567;BME280;3317;43.994;22.878;2022-08-01T12:07:18;100528.03;;;37.24;23.68
6567;BME280;3317;43.994;22.878;2022-08-01T12:09:46;100525.75;;;37.17;23.92
6567;BME280;3317;43.994;22.878;2022-08-01T12:12:18;100522.97;;;37.08;23.65
6567;BME280;3317;43.994;22.878;2022-08-01T12:14:53;100525.66;;;37.04;24.29
6567;BME280;3317;43.994;22.878;2022-08-01T12:17:28;100517.00;;;37.01;24.26
6567;BME280;3317;43.994;22.878;2022-08-01T12:19:55;100528.28;;;37.01;24.20
6567;BME280;3317;43.994;22.878;2022-08-01T12:22:23;100525.50;;;36.92;24.26
6567;BME280;3317;43.994;22.878;2022-08-01T12:24:51;100511.53;;;36.96;24.47
6567;BME280;3317;43.994;22.878;2022-08-01T12:27:26;100518.00;;;36.96;24.64
6567;BME280;3317;43.994;22.878;2022-08-01T12:29:55;100513.41;;;36.91;24.33
6567;BME280;3317;43.994;22.878;2022-08-01T12:32:26;100507.88;;;36.95;24.35
6567;BME280;3317;43.994;22.878;2022-08-01T12:34:55;100516.88;;;36.88;24.10
6567;BME280;3317;43.994;22.878;2022-08-01T12:37:23;100511.72;;;36.90;24.56
6567;BME280;3317;43.994;22.878;2022-08-01T12:39:50;100506.13;;;36.82;24.23
6567;BME280;3317;43.994;22.878;2022-08-01T12:42:17;100516.59;;;36.81;24.16
6567;BME280;3317;43.994;22.878;2022-08-01T12:44:46;100506.00;;;36.78;24.23
6567;BME280;3317;43.994;22.878;2022-08-01T12:47:15;100505.53;;;36.67;24.08
6567;BME280;3317;43.994;22.878;2022-08-01T12:49:44;100491.78;;;36.57;24.61
6567;BME280;3317;43.994;22.878;2022-08-01T12:52:14;100500.72;;;36.50;24.38
6567;BME280;3317;43.994;22.878;2022-08-01T12:55:01;100500.44;;;36.43;24.33
6567;BME280;3317;43.994;22.878;2022-08-01T12:57:29;100491.16;;;36.33;24.81
6567;BME280;3317;43.994;22.878;2022-08-01T13:00:14;100498.69;;;36.20;24.30
6567;BME280;3317;43.994;22.878;2022-08-01T13:02:44;100488.88;;;36.18;25.26
6567;BME280;3317;43.994;22.878;2022-08-01T13:05:12;100493.03;;;36.12;25.08
6567;BME280;3317;43.994;22.878;2022-08-01T13:07:46;100493.00;;;36.03;24.94
6567;BME280;3317;43.994;22.878;2022-08-01T13:10:14;100504.97;;;36.00;25.38
6567;BME280;3317;43.994;22.878;2022-08-01T13:12:51;100493.88;;;35.94;25.25
6567;BME280;3317;43.994;22.878;2022-08-01T13:15:23;100496.84;;;35.89;25.04
6567;BME280;3317;43.994;22.878;2022-08-01T13:17:53;100502.50;;;35.80;25.23
6567;BME280;3317;43.994;22.878;2022-08-01T13:20:29;100493.19;;;35.71;25.50